SWR259T LIRF-LSZH
Flight info
| Callsign | SWR259T |
|---|---|
| Flight time | 1h 7m |
| Altitude | 36000 |
| Route | SOVAN DCT AMTEL DCT PEPAG DCT CANNE Z651 DETRI/N0435F300 Z651 KELIP |
| Aircraft | A321/M-SDE3FGHIRWY/LB1 |
Departure
| Time | 2026-05-07 18:01 |
|---|---|
| Airport | Rome–Fiumicino Leonardo da Vinci International Airport (LIRF) |
Arrival
| Time | 2026-05-07 19:09 |
|---|---|
| Airport | Zürich Airport (LSZH) |
| Time | Latitude | Longitude | Altitude | Speed | Heading |
|---|---|---|---|---|---|
| 2026-05-07 17:16 | 41.79794 | 12.25523 | 15 ft | 0 kts | 115° |
| 2026-05-07 17:50 | 41.79800 | 12.25506 | 14 ft | 4 kts | 115° |
| 2026-05-07 17:50 | 41.79807 | 12.25475 | 14 ft | 4 kts | 75° |
| 2026-05-07 17:50 | 41.79793 | 12.25447 | 17 ft | 4 kts | 31° |
| 2026-05-07 17:51 | 41.79783 | 12.25440 | 16 ft | 1 kts | 25° |
| 2026-05-07 17:51 | 41.79782 | 12.25440 | 16 ft | 0 kts | 25° |
| 2026-05-07 17:53 | 41.79784 | 12.25440 | 16 ft | 2 kts | 25° |
| 2026-05-07 17:54 | 41.79800 | 12.25450 | 15 ft | 3 kts | 25° |
| 2026-05-07 17:54 | 41.79823 | 12.25465 | 16 ft | 4 kts | 25° |
| 2026-05-07 17:54 | 41.79850 | 12.25482 | 15 ft | 6 kts | 25° |
| 2026-05-07 17:54 | 41.79886 | 12.25504 | 15 ft | 5 kts | 25° |
| 2026-05-07 17:55 | 41.79926 | 12.25530 | 14 ft | 7 kts | 29° |
| 2026-05-07 17:55 | 41.79936 | 12.25581 | 14 ft | 7 kts | 100° |
| 2026-05-07 17:55 | 41.79913 | 12.25649 | 14 ft | 9 kts | 115° |
| 2026-05-07 17:55 | 41.79888 | 12.25720 | 14 ft | 8 kts | 115° |
| 2026-05-07 17:56 | 41.79869 | 12.25793 | 14 ft | 10 kts | 90° |
| 2026-05-07 17:56 | 41.79920 | 12.25852 | 14 ft | 11 kts | 25° |
| 2026-05-07 17:56 | 41.79999 | 12.25901 | 14 ft | 13 kts | 25° |
| 2026-05-07 17:56 | 41.80076 | 12.25948 | 16 ft | 12 kts | 25° |
| 2026-05-07 17:57 | 41.80152 | 12.25995 | 14 ft | 14 kts | 25° |
| 2026-05-07 17:57 | 41.80212 | 12.26032 | 15 ft | 14 kts | 25° |
| 2026-05-07 17:57 | 41.80328 | 12.26104 | 14 ft | 16 kts | 25° |
| 2026-05-07 17:57 | 41.80426 | 12.26161 | 16 ft | 14 kts | 19° |
| 2026-05-07 17:58 | 41.80511 | 12.26209 | 18 ft | 13 kts | 43° |
| 2026-05-07 17:58 | 41.80556 | 12.26339 | 16 ft | 18 kts | 70° |
| 2026-05-07 17:58 | 41.80601 | 12.26502 | 16 ft | 18 kts | 70° |
| 2026-05-07 17:58 | 41.80643 | 12.26657 | 15 ft | 17 kts | 69° |
| 2026-05-07 17:59 | 41.80685 | 12.26806 | 14 ft | 17 kts | 70° |
| 2026-05-07 17:59 | 41.80724 | 12.26952 | 15 ft | 16 kts | 70° |
| 2026-05-07 17:59 | 41.80777 | 12.27042 | 13 ft | 12 kts | 15° |
| 2026-05-07 17:59 | 41.80852 | 12.27020 | 13 ft | 11 kts | 340° |
| 2026-05-07 18:00 | 41.80921 | 12.26986 | 13 ft | 10 kts | 340° |
| 2026-05-07 18:00 | 41.80958 | 12.26935 | 12 ft | 6 kts | 265° |
| 2026-05-07 18:00 | 41.80955 | 12.26917 | 13 ft | 0 kts | 252° |
| 2026-05-07 18:00 | 41.80954 | 12.26916 | 13 ft | 1 kts | 252° |
| 2026-05-07 18:01 | 41.80897 | 12.26703 | 13 ft | 66 kts | 250° |
| 2026-05-07 18:01 | 41.80636 | 12.25760 | 17 ft | 146 kts | 250° |
| 2026-05-07 18:01 | 41.80228 | 12.24295 | 466 ft | 173 kts | 251° |
| 2026-05-07 18:01 | 41.79812 | 12.22793 | 1462 ft | 174 kts | 253° |
| 2026-05-07 18:02 | 41.79190 | 12.19493 | 2198 ft | 200 kts | 284° |
| 2026-05-07 18:02 | 41.79862 | 12.17846 | 2667 ft | 207 kts | 310° |
| 2026-05-07 18:02 | 41.80782 | 12.16325 | 3123 ft | 213 kts | 311° |
| 2026-05-07 18:03 | 41.81718 | 12.14772 | 3660 ft | 215 kts | 311° |
| 2026-05-07 18:03 | 41.82673 | 12.13182 | 4045 ft | 226 kts | 311° |
| 2026-05-07 18:03 | 41.83722 | 12.11469 | 4193 ft | 250 kts | 311° |
| 2026-05-07 18:03 | 41.84884 | 12.09593 | 4528 ft | 269 kts | 311° |
| 2026-05-07 18:04 | 41.86104 | 12.07653 | 5211 ft | 274 kts | 311° |
| 2026-05-07 18:04 | 41.87354 | 12.05696 | 5926 ft | 278 kts | 311° |
| 2026-05-07 18:04 | 41.88627 | 12.03734 | 6647 ft | 281 kts | 310° |
| 2026-05-07 18:04 | 41.89966 | 12.01814 | 7328 ft | 284 kts | 319° |
| 2026-05-07 18:05 | 41.91696 | 12.00525 | 8000 ft | 287 kts | 343° |
| 2026-05-07 18:05 | 41.93681 | 12.00278 | 8676 ft | 291 kts | 5° |
| 2026-05-07 18:05 | 41.95702 | 12.00562 | 9356 ft | 294 kts | 5° |
| 2026-05-07 18:05 | 41.97740 | 12.00866 | 10036 ft | 296 kts | 6° |
| 2026-05-07 18:06 | 41.99828 | 12.01184 | 10365 ft | 312 kts | 5° |
| 2026-05-07 18:06 | 42.02056 | 12.01518 | 10489 ft | 332 kts | 5° |
| 2026-05-07 18:06 | 42.04413 | 12.01866 | 10710 ft | 347 kts | 5° |
| 2026-05-07 18:06 | 42.06837 | 12.02226 | 11221 ft | 352 kts | 5° |
| 2026-05-07 18:07 | 42.09289 | 12.02590 | 11785 ft | 356 kts | 5° |
| 2026-05-07 18:07 | 42.11769 | 12.02958 | 12371 ft | 359 kts | 5° |
| 2026-05-07 18:07 | 42.14266 | 12.03326 | 12955 ft | 363 kts | 4° |
| 2026-05-07 18:07 | 42.16788 | 12.03688 | 13512 ft | 366 kts | 3° |
| 2026-05-07 18:08 | 42.19338 | 12.03661 | 13990 ft | 368 kts | 351° |
| 2026-05-07 18:08 | 42.21867 | 12.03120 | 14509 ft | 370 kts | 348° |
| 2026-05-07 18:08 | 42.24415 | 12.02536 | 15041 ft | 372 kts | 347° |
| 2026-05-07 18:08 | 42.26981 | 12.01953 | 15563 ft | 375 kts | 347° |
| 2026-05-07 18:09 | 42.29564 | 12.01371 | 16075 ft | 378 kts | 347° |
| 2026-05-07 18:09 | 42.32163 | 12.00787 | 16577 ft | 380 kts | 347° |
| 2026-05-07 18:09 | 42.34785 | 12.00201 | 17070 ft | 383 kts | 347° |
| 2026-05-07 18:09 | 42.37425 | 11.99611 | 17563 ft | 386 kts | 347° |
| 2026-05-07 18:10 | 42.40085 | 11.99015 | 18064 ft | 388 kts | 347° |
| 2026-05-07 18:10 | 42.42725 | 11.98421 | 18511 ft | 390 kts | 347° |
| 2026-05-07 18:10 | 42.45440 | 11.97809 | 18940 ft | 392 kts | 347° |
| 2026-05-07 18:10 | 42.48135 | 11.97201 | 19356 ft | 393 kts | 346° |
| 2026-05-07 18:11 | 42.50800 | 11.96598 | 19755 ft | 394 kts | 346° |
| 2026-05-07 18:11 | 42.52631 | 11.96181 | 20019 ft | 395 kts | 346° |
| 2026-05-07 18:11 | 42.56235 | 11.95365 | 20528 ft | 397 kts | 346° |
| 2026-05-07 18:11 | 42.58966 | 11.94749 | 20901 ft | 399 kts | 346° |
| 2026-05-07 18:12 | 42.61743 | 11.94118 | 21283 ft | 400 kts | 346° |
| 2026-05-07 18:12 | 42.64466 | 11.93499 | 21636 ft | 402 kts | 346° |
| 2026-05-07 18:12 | 42.67236 | 11.92868 | 22002 ft | 404 kts | 346° |
| 2026-05-07 18:12 | 42.70015 | 11.92232 | 22372 ft | 406 kts | 346° |
| 2026-05-07 18:13 | 42.72804 | 11.91592 | 22750 ft | 408 kts | 346° |
| 2026-05-07 18:13 | 42.75608 | 11.90951 | 23114 ft | 410 kts | 346° |
| 2026-05-07 18:13 | 42.78424 | 11.90309 | 23490 ft | 411 kts | 346° |
| 2026-05-07 18:13 | 42.81247 | 11.89654 | 23826 ft | 412 kts | 343° |
| 2026-05-07 18:14 | 42.83991 | 11.88594 | 24114 ft | 408 kts | 334° |
| 2026-05-07 18:14 | 42.86547 | 11.86951 | 24423 ft | 405 kts | 327° |
| 2026-05-07 18:14 | 42.89030 | 11.85115 | 24739 ft | 407 kts | 327° |
| 2026-05-07 18:14 | 42.91526 | 11.83280 | 25067 ft | 408 kts | 326° |
| 2026-05-07 18:15 | 42.94032 | 11.81445 | 25375 ft | 410 kts | 326° |
| 2026-05-07 18:15 | 42.96545 | 11.79607 | 25683 ft | 411 kts | 326° |
| 2026-05-07 18:15 | 42.99073 | 11.77758 | 25984 ft | 412 kts | 326° |
| 2026-05-07 18:15 | 43.01604 | 11.75906 | 26305 ft | 413 kts | 326° |
| 2026-05-07 18:16 | 43.04145 | 11.74048 | 26647 ft | 414 kts | 326° |
| 2026-05-07 18:16 | 43.06689 | 11.72185 | 26990 ft | 415 kts | 325° |
| 2026-05-07 18:16 | 43.09232 | 11.70316 | 27297 ft | 416 kts | 325° |
| 2026-05-07 18:16 | 43.11785 | 11.68434 | 27600 ft | 417 kts | 325° |
| 2026-05-07 18:17 | 43.14341 | 11.66544 | 27886 ft | 419 kts | 325° |
| 2026-05-07 18:17 | 43.16907 | 11.64643 | 28150 ft | 420 kts | 325° |
| 2026-05-07 18:17 | 43.19485 | 11.62736 | 28433 ft | 422 kts | 324° |
| 2026-05-07 18:17 | 43.22069 | 11.60813 | 28712 ft | 422 kts | 324° |
| 2026-05-07 18:18 | 43.24606 | 11.58788 | 29007 ft | 422 kts | 322° |
| 2026-05-07 18:18 | 43.27097 | 11.56665 | 29302 ft | 421 kts | 320° |
| 2026-05-07 18:18 | 43.29561 | 11.54480 | 29570 ft | 421 kts | 320° |
| 2026-05-07 18:18 | 43.32020 | 11.52269 | 29809 ft | 422 kts | 320° |
| 2026-05-07 18:19 | 43.34484 | 11.50055 | 30033 ft | 424 kts | 320° |
| 2026-05-07 18:19 | 43.36964 | 11.47850 | 30220 ft | 425 kts | 320° |
| 2026-05-07 18:19 | 43.39456 | 11.45659 | 30397 ft | 427 kts | 320° |
| 2026-05-07 18:19 | 43.41970 | 11.43469 | 30574 ft | 428 kts | 320° |
| 2026-05-07 18:20 | 43.44488 | 11.41287 | 30803 ft | 427 kts | 320° |
| 2026-05-07 18:20 | 43.47000 | 11.39106 | 31077 ft | 427 kts | 320° |
| 2026-05-07 18:20 | 43.49508 | 11.36918 | 31334 ft | 426 kts | 320° |
| 2026-05-07 18:20 | 43.52006 | 11.34732 | 31585 ft | 425 kts | 320° |
| 2026-05-07 18:21 | 43.54497 | 11.32544 | 31831 ft | 425 kts | 320° |
| 2026-05-07 18:21 | 43.56149 | 11.31089 | 31983 ft | 424 kts | 320° |
| 2026-05-07 18:21 | 43.58638 | 11.28894 | 32196 ft | 425 kts | 320° |
| 2026-05-07 18:21 | 43.61128 | 11.26696 | 32410 ft | 425 kts | 320° |
| 2026-05-07 18:22 | 43.64432 | 11.23785 | 32680 ft | 425 kts | 320° |
| 2026-05-07 18:22 | 43.68605 | 11.20109 | 33133 ft | 423 kts | 320° |
| 2026-05-07 18:22 | 43.71082 | 11.17921 | 33407 ft | 422 kts | 320° |
| 2026-05-07 18:23 | 43.73551 | 11.15734 | 33633 ft | 421 kts | 320° |
| 2026-05-07 18:23 | 43.76018 | 11.13547 | 33842 ft | 421 kts | 320° |
| 2026-05-07 18:23 | 43.78485 | 11.11362 | 34054 ft | 421 kts | 320° |
| 2026-05-07 18:23 | 43.80949 | 11.09177 | 34239 ft | 421 kts | 319° |
| 2026-05-07 18:24 | 43.83412 | 11.06991 | 34404 ft | 421 kts | 319° |
| 2026-05-07 18:24 | 43.85886 | 11.04795 | 34581 ft | 421 kts | 319° |
| 2026-05-07 18:24 | 43.88347 | 11.02605 | 34739 ft | 421 kts | 319° |
| 2026-05-07 18:24 | 43.90815 | 11.00407 | 34922 ft | 422 kts | 319° |
| 2026-05-07 18:25 | 43.93284 | 10.98205 | 35087 ft | 422 kts | 319° |
| 2026-05-07 18:25 | 43.95756 | 10.95994 | 35253 ft | 422 kts | 319° |
| 2026-05-07 18:25 | 43.98224 | 10.93785 | 35421 ft | 423 kts | 319° |
| 2026-05-07 18:25 | 44.00698 | 10.91569 | 35572 ft | 423 kts | 319° |
| 2026-05-07 18:26 | 44.03173 | 10.89353 | 35744 ft | 423 kts | 319° |
| 2026-05-07 18:26 | 44.05651 | 10.87136 | 35914 ft | 424 kts | 319° |
| 2026-05-07 18:26 | 44.08129 | 10.84920 | 36054 ft | 424 kts | 319° |
| 2026-05-07 18:27 | 44.13072 | 10.80491 | 36090 ft | 422 kts | 319° |
| 2026-05-07 18:27 | 44.18005 | 10.76044 | 36093 ft | 422 kts | 319° |
| 2026-05-07 18:28 | 44.22924 | 10.71593 | 36112 ft | 422 kts | 319° |
| 2026-05-07 18:28 | 44.27847 | 10.67152 | 36097 ft | 421 kts | 319° |
| 2026-05-07 18:29 | 44.32768 | 10.62691 | 36098 ft | 421 kts | 319° |
| 2026-05-07 18:29 | 44.37680 | 10.58228 | 36093 ft | 421 kts | 319° |
| 2026-05-07 18:30 | 44.42600 | 10.53755 | 36101 ft | 422 kts | 319° |
| 2026-05-07 18:30 | 44.47524 | 10.49282 | 36100 ft | 422 kts | 319° |
| 2026-05-07 18:31 | 44.52446 | 10.44794 | 36104 ft | 422 kts | 319° |
| 2026-05-07 18:31 | 44.57360 | 10.40286 | 36088 ft | 422 kts | 319° |
| 2026-05-07 18:32 | 44.62274 | 10.35769 | 36071 ft | 422 kts | 319° |
| 2026-05-07 18:32 | 44.67189 | 10.31250 | 36010 ft | 422 kts | 319° |
| 2026-05-07 18:33 | 44.72111 | 10.26736 | 36001 ft | 422 kts | 319° |
| 2026-05-07 18:33 | 44.77031 | 10.22199 | 36008 ft | 423 kts | 320° |
| 2026-05-07 18:34 | 44.81956 | 10.17649 | 35999 ft | 424 kts | 320° |
| 2026-05-07 18:34 | 44.86887 | 10.13091 | 35997 ft | 424 kts | 320° |
| 2026-05-07 18:35 | 44.91816 | 10.08517 | 35995 ft | 424 kts | 319° |
| 2026-05-07 18:35 | 44.96743 | 10.03928 | 36002 ft | 424 kts | 320° |
| 2026-05-07 18:36 | 45.01675 | 9.99333 | 36000 ft | 424 kts | 320° |
| 2026-05-07 18:36 | 45.06599 | 9.94730 | 35986 ft | 425 kts | 320° |
| 2026-05-07 18:37 | 45.11534 | 9.90112 | 35973 ft | 425 kts | 320° |
| 2026-05-07 18:37 | 45.16460 | 9.85485 | 35992 ft | 425 kts | 320° |
| 2026-05-07 18:38 | 45.21395 | 9.80850 | 35977 ft | 425 kts | 320° |
| 2026-05-07 18:38 | 45.26323 | 9.76202 | 35980 ft | 425 kts | 320° |
| 2026-05-07 18:39 | 45.31242 | 9.71541 | 36003 ft | 425 kts | 320° |
| 2026-05-07 18:39 | 45.36166 | 9.66873 | 36015 ft | 425 kts | 320° |
| 2026-05-07 18:40 | 45.41100 | 9.62209 | 36038 ft | 426 kts | 320° |
| 2026-05-07 18:40 | 45.46034 | 9.57543 | 36047 ft | 426 kts | 320° |
| 2026-05-07 18:41 | 45.50957 | 9.52846 | 36044 ft | 426 kts | 320° |
| 2026-05-07 18:41 | 45.55875 | 9.48139 | 36042 ft | 426 kts | 320° |
| 2026-05-07 18:42 | 45.60797 | 9.43427 | 36055 ft | 426 kts | 320° |
| 2026-05-07 18:42 | 45.65715 | 9.38714 | 36044 ft | 426 kts | 320° |
| 2026-05-07 18:43 | 45.70634 | 9.33988 | 35991 ft | 426 kts | 320° |
| 2026-05-07 18:43 | 45.75551 | 9.29254 | 35987 ft | 426 kts | 320° |
| 2026-05-07 18:44 | 45.80473 | 9.24503 | 36005 ft | 426 kts | 320° |
| 2026-05-07 18:44 | 45.85386 | 9.19762 | 35898 ft | 425 kts | 320° |
| 2026-05-07 18:44 | 45.87836 | 9.17395 | 35655 ft | 424 kts | 320° |
| 2026-05-07 18:45 | 45.90286 | 9.15022 | 35413 ft | 424 kts | 320° |
| 2026-05-07 18:45 | 45.92728 | 9.12652 | 35178 ft | 423 kts | 320° |
| 2026-05-07 18:45 | 45.95157 | 9.10290 | 34823 ft | 421 kts | 320° |
| 2026-05-07 18:45 | 45.97588 | 9.07923 | 34188 ft | 422 kts | 320° |
| 2026-05-07 18:46 | 46.00007 | 9.05543 | 33543 ft | 421 kts | 319° |
| 2026-05-07 18:46 | 46.02389 | 9.03117 | 32977 ft | 416 kts | 319° |
| 2026-05-07 18:46 | 46.04719 | 9.00687 | 32469 ft | 412 kts | 319° |
| 2026-05-07 18:46 | 46.07022 | 8.98260 | 31935 ft | 408 kts | 319° |
| 2026-05-07 18:47 | 46.09299 | 8.95856 | 31373 ft | 403 kts | 319° |
| 2026-05-07 18:47 | 46.11554 | 8.93483 | 30875 ft | 400 kts | 319° |
| 2026-05-07 18:47 | 46.13806 | 8.91148 | 30357 ft | 397 kts | 322° |
| 2026-05-07 18:47 | 46.16237 | 8.89238 | 29824 ft | 400 kts | 332° |
| 2026-05-07 18:48 | 46.18883 | 8.87970 | 29285 ft | 402 kts | 341° |
| 2026-05-07 18:48 | 46.21647 | 8.87362 | 28770 ft | 402 kts | 349° |
| 2026-05-07 18:48 | 46.24412 | 8.86959 | 28269 ft | 397 kts | 349° |
| 2026-05-07 18:48 | 46.27147 | 8.86551 | 27760 ft | 392 kts | 349° |
| 2026-05-07 18:49 | 46.29844 | 8.86145 | 27290 ft | 387 kts | 349° |
| 2026-05-07 18:49 | 46.32504 | 8.85743 | 26815 ft | 381 kts | 349° |
| 2026-05-07 18:49 | 46.35117 | 8.85349 | 26370 ft | 374 kts | 349° |
| 2026-05-07 18:49 | 46.37688 | 8.84962 | 25923 ft | 369 kts | 350° |
| 2026-05-07 18:50 | 46.40224 | 8.84582 | 25505 ft | 364 kts | 349° |
| 2026-05-07 18:50 | 46.42746 | 8.84200 | 25094 ft | 362 kts | 350° |
| 2026-05-07 18:50 | 46.45244 | 8.83823 | 24685 ft | 360 kts | 350° |
| 2026-05-07 18:50 | 46.47728 | 8.83448 | 24278 ft | 358 kts | 350° |
| 2026-05-07 18:51 | 46.50166 | 8.83080 | 23870 ft | 356 kts | 351° |
| 2026-05-07 18:51 | 46.52623 | 8.82710 | 23415 ft | 353 kts | 351° |
| 2026-05-07 18:51 | 46.55068 | 8.82339 | 22980 ft | 351 kts | 351° |
| 2026-05-07 18:51 | 46.57490 | 8.81971 | 22574 ft | 349 kts | 351° |
| 2026-05-07 18:52 | 46.59905 | 8.81605 | 22167 ft | 348 kts | 351° |
| 2026-05-07 18:52 | 46.62306 | 8.81241 | 21759 ft | 346 kts | 351° |
| 2026-05-07 18:52 | 46.64364 | 8.80929 | 21424 ft | 344 kts | 351° |
| 2026-05-07 18:52 | 46.66739 | 8.80569 | 21005 ft | 342 kts | 351° |
| 2026-05-07 18:53 | 46.69100 | 8.80209 | 20596 ft | 340 kts | 351° |
| 2026-05-07 18:53 | 46.71451 | 8.79848 | 20188 ft | 339 kts | 351° |
| 2026-05-07 18:53 | 46.73792 | 8.79488 | 19782 ft | 337 kts | 351° |
| 2026-05-07 18:53 | 46.76119 | 8.79134 | 19375 ft | 336 kts | 352° |
| 2026-05-07 18:54 | 46.78441 | 8.78784 | 18970 ft | 334 kts | 352° |
| 2026-05-07 18:54 | 46.80748 | 8.78435 | 18570 ft | 333 kts | 352° |
| 2026-05-07 18:54 | 46.83042 | 8.78087 | 18148 ft | 331 kts | 352° |
| 2026-05-07 18:54 | 46.85328 | 8.77740 | 17734 ft | 329 kts | 352° |
| 2026-05-07 18:55 | 46.87597 | 8.77392 | 17341 ft | 327 kts | 352° |
| 2026-05-07 18:55 | 46.89851 | 8.77046 | 16952 ft | 326 kts | 352° |
| 2026-05-07 18:55 | 46.92178 | 8.76686 | 16575 ft | 342 kts | 352° |
| 2026-05-07 18:55 | 46.94553 | 8.76320 | 16160 ft | 343 kts | 351° |
| 2026-05-07 18:56 | 46.96924 | 8.75958 | 15752 ft | 341 kts | 352° |
| 2026-05-07 18:56 | 46.99279 | 8.75592 | 15350 ft | 340 kts | 352° |
| 2026-05-07 18:56 | 47.01620 | 8.75222 | 14958 ft | 338 kts | 351° |
| 2026-05-07 18:56 | 47.03951 | 8.74850 | 14560 ft | 336 kts | 351° |
| 2026-05-07 18:57 | 47.06253 | 8.74485 | 14304 ft | 327 kts | 351° |
| 2026-05-07 18:57 | 47.07758 | 8.74220 | 14222 ft | 318 kts | 349° |
| 2026-05-07 18:57 | 47.09908 | 8.73735 | 13973 ft | 309 kts | 348° |
| 2026-05-07 18:57 | 47.12021 | 8.73237 | 13609 ft | 306 kts | 348° |
| 2026-05-07 18:58 | 47.14114 | 8.72740 | 13173 ft | 304 kts | 348° |
| 2026-05-07 18:58 | 47.16195 | 8.72234 | 12732 ft | 302 kts | 346° |
| 2026-05-07 18:58 | 47.18105 | 8.71119 | 12315 ft | 293 kts | 321° |
| 2026-05-07 18:58 | 47.19639 | 8.69172 | 11851 ft | 291 kts | 314° |
| 2026-05-07 18:59 | 47.21111 | 8.67138 | 11417 ft | 290 kts | 314° |
| 2026-05-07 18:59 | 47.22574 | 8.65102 | 10997 ft | 289 kts | 314° |
| 2026-05-07 18:59 | 47.24030 | 8.63073 | 10593 ft | 288 kts | 314° |
| 2026-05-07 18:59 | 47.25477 | 8.61051 | 10192 ft | 286 kts | 314° |
| 2026-05-07 19:00 | 47.26974 | 8.59121 | 9755 ft | 287 kts | 326° |
| 2026-05-07 19:00 | 47.28864 | 8.58230 | 9360 ft | 290 kts | 356° |
| 2026-05-07 19:00 | 47.30825 | 8.58843 | 8945 ft | 291 kts | 27° |
| 2026-05-07 19:00 | 47.32325 | 8.60793 | 8557 ft | 290 kts | 58° |
| 2026-05-07 19:01 | 47.33005 | 8.63537 | 8184 ft | 286 kts | 82° |
| 2026-05-07 19:01 | 47.33226 | 8.66436 | 8019 ft | 285 kts | 91° |
| 2026-05-07 19:01 | 47.33053 | 8.69345 | 7859 ft | 286 kts | 98° |
| 2026-05-07 19:01 | 47.32827 | 8.72238 | 7604 ft | 283 kts | 97° |
| 2026-05-07 19:02 | 47.32612 | 8.75113 | 7349 ft | 281 kts | 97° |
| 2026-05-07 19:02 | 47.32401 | 8.77971 | 7107 ft | 280 kts | 97° |
| 2026-05-07 19:02 | 47.32193 | 8.80815 | 6856 ft | 278 kts | 97° |
| 2026-05-07 19:02 | 47.31988 | 8.83636 | 6540 ft | 275 kts | 96° |
| 2026-05-07 19:03 | 47.32066 | 8.86423 | 6177 ft | 272 kts | 75° |
| 2026-05-07 19:03 | 47.32858 | 8.88920 | 5916 ft | 270 kts | 52° |
| 2026-05-07 19:03 | 47.34256 | 8.90734 | 5658 ft | 269 kts | 28° |
| 2026-05-07 19:03 | 47.36028 | 8.91545 | 5448 ft | 268 kts | 4° |
| 2026-05-07 19:04 | 47.37866 | 8.91254 | 5324 ft | 267 kts | 341° |
| 2026-05-07 19:04 | 47.39487 | 8.90063 | 5194 ft | 254 kts | 330° |
| 2026-05-07 19:04 | 47.40983 | 8.88797 | 5097 ft | 241 kts | 330° |
| 2026-05-07 19:04 | 47.42364 | 8.87430 | 4999 ft | 231 kts | 316° |
| 2026-05-07 19:05 | 47.43313 | 8.85555 | 4999 ft | 228 kts | 296° |
| 2026-05-07 19:05 | 47.43749 | 8.83388 | 5005 ft | 212 kts | 276° |
| 2026-05-07 19:05 | 47.43898 | 8.81293 | 4942 ft | 201 kts | 277° |
| 2026-05-07 19:05 | 47.44050 | 8.79271 | 4688 ft | 196 kts | 277° |
| 2026-05-07 19:06 | 47.44196 | 8.77285 | 4423 ft | 193 kts | 277° |
| 2026-05-07 19:06 | 47.44484 | 8.73348 | 3862 ft | 192 kts | 277° |
| 2026-05-07 19:06 | 47.44626 | 8.71398 | 3582 ft | 191 kts | 277° |
| 2026-05-07 19:07 | 47.44767 | 8.69455 | 3313 ft | 187 kts | 277° |
| 2026-05-07 19:07 | 47.44900 | 8.67618 | 3043 ft | 173 kts | 277° |
| 2026-05-07 19:07 | 47.45023 | 8.65907 | 2790 ft | 161 kts | 277° |
| 2026-05-07 19:07 | 47.45138 | 8.64311 | 2552 ft | 152 kts | 277° |
| 2026-05-07 19:08 | 47.45249 | 8.62774 | 2317 ft | 149 kts | 277° |
| 2026-05-07 19:08 | 47.45350 | 8.61255 | 2084 ft | 148 kts | 277° |
| 2026-05-07 19:08 | 47.45464 | 8.59745 | 1883 ft | 148 kts | 277° |
| 2026-05-07 19:08 | 47.45571 | 8.58250 | 1657 ft | 148 kts | 278° |
| 2026-05-07 19:09 | 47.45683 | 8.56718 | 1431 ft | 146 kts | 277° |
| 2026-05-07 19:09 | 47.45776 | 8.55413 | 1400 ft | 85 kts | 275° |
| 2026-05-07 19:09 | 47.45818 | 8.54816 | 1387 ft | 48 kts | 276° |
| 2026-05-07 19:09 | 47.45810 | 8.54459 | 1389 ft | 32 kts | 253° |
| 2026-05-07 19:10 | 47.45741 | 8.54240 | 1385 ft | 17 kts | 227° |
| 2026-05-07 19:10 | 47.45638 | 8.54229 | 1386 ft | 14 kts | 144° |
| 2026-05-07 19:10 | 47.45599 | 8.54341 | 1385 ft | 11 kts | 108° |
| 2026-05-07 19:10 | 47.45575 | 8.54450 | 1386 ft | 13 kts | 108° |
| 2026-05-07 19:11 | 47.45549 | 8.54567 | 1390 ft | 11 kts | 108° |
| 2026-05-07 19:11 | 47.45527 | 8.54667 | 1388 ft | 11 kts | 108° |
| 2026-05-07 19:11 | 47.45499 | 8.54794 | 1400 ft | 13 kts | 108° |
| 2026-05-07 19:11 | 47.45466 | 8.54933 | 1396 ft | 14 kts | 110° |
| 2026-05-07 19:12 | 47.45433 | 8.55073 | 1396 ft | 14 kts | 108° |
| 2026-05-07 19:12 | 47.45403 | 8.55202 | 1403 ft | 12 kts | 109° |
| 2026-05-07 19:12 | 47.45369 | 8.55317 | 1406 ft | 12 kts | 119° |
| 2026-05-07 19:12 | 47.45331 | 8.55418 | 1403 ft | 10 kts | 119° |
| 2026-05-07 19:13 | 47.45302 | 8.55493 | 1408 ft | 9 kts | 120° |
| 2026-05-07 19:13 | 47.45278 | 8.55565 | 1408 ft | 6 kts | 108° |
| 2026-05-07 19:13 | 47.45270 | 8.55655 | 1408 ft | 11 kts | 96° |
| 2026-05-07 19:13 | 47.45262 | 8.55764 | 1407 ft | 10 kts | 96° |
| 2026-05-07 19:14 | 47.45256 | 8.55860 | 1409 ft | 9 kts | 96° |
| 2026-05-07 19:14 | 47.45249 | 8.55950 | 1407 ft | 8 kts | 96° |
| 2026-05-07 19:14 | 47.45250 | 8.55993 | 1407 ft | 3 kts | 67° |
| 2026-05-07 19:14 | 47.45279 | 8.56011 | 1407 ft | 5 kts | 7° |
| 2026-05-07 19:15 | 47.45310 | 8.56016 | 1407 ft | 4 kts | 6° |
| 2026-05-07 19:15 | 47.45322 | 8.56017 | 1407 ft | 0 kts | 6° |